Time;durP1;ratioP1;P1;durP2;ratioP2;P2;SDS_P1;SDS_P2;PMS_P1;PMS_P2;Temp;Humidity;BMP_temperature;BMP_pressure;BME280_temperature;BME280_humidity;BME280_pressure;Samples;Min_cycle;Max_cycle;Signal;HPM_P1;HPM_P2
2023/11/22 00:02:02;;;;;;;30.88;16.83;;;-1.30;99.90;;;;;;5072938;28;20095;-74
2023/11/22 00:04:28;;;;;;;28.63;16.85;;;-1.30;99.90;;;;;;5072935;28;20017;-79
2023/11/22 00:06:54;;;;;;;25.38;13.75;;;-1.30;99.90;;;;;;5071665;28;20109;-74
2023/11/22 00:09:22;;;;;;;27.13;14.43;;;-1.30;99.90;;;;;;5072895;28;20052;-79
2023/11/22 00:11:49;;;;;;;28.25;15.13;;;-1.30;99.90;;;;;;5071710;28;20597;-79
2023/11/22 00:14:14;;;;;;;20.13;13.27;;;-1.20;99.90;;;;;;5072668;28;20039;-80
2023/11/22 00:16:40;;;;;;;28.33;15.63;;;-1.20;99.90;;;;;;5079640;28;20016;-80
2023/11/22 00:19:06;;;;;;;26.02;13.48;;;-1.30;99.90;;;;;;5072118;28;20066;-75
2023/11/22 00:21:32;;;;;;;27.42;14.18;;;-1.30;99.90;;;;;;5071249;28;20103;-75
2023/11/22 00:23:58;;;;;;;27.60;12.27;;;-1.30;99.90;;;;;;5071643;28;20024;-74
2023/11/22 00:26:24;;;;;;;22.95;14.45;;;-1.40;99.90;;;;;;5071049;28;20086;-75
2023/11/22 00:28:50;;;;;;;25.77;14.82;;;-1.40;99.90;;;;;;5071655;28;20027;-74
2023/11/22 00:31:16;;;;;;;30.52;15.50;;;-1.30;99.90;;;;;;5072213;28;20024;-74
2023/11/22 00:33:41;;;;;;;34.90;16.10;;;-1.30;99.90;;;;;;5071421;28;20037;-76
2023/11/22 00:36:08;;;;;;;26.95;15.35;;;-1.40;99.90;;;;;;5071814;28;20027;-79
2023/11/22 00:38:39;;;;;;;31.42;17.55;;;-1.40;99.90;;;;;;5072627;28;20016;-78
2023/11/22 00:41:05;;;;;;;34.53;17.80;;;-1.40;99.90;;;;;;5072498;28;20021;-75
2023/11/22 00:43:31;;;;;;;28.65;16.83;;;-1.40;99.90;;;;;;5071186;28;20067;-79
2023/11/22 00:45:57;;;;;;;34.80;19.30;;;-1.40;99.90;;;;;;5070987;28;20099;-76
2023/11/22 00:48:22;;;;;;;34.25;18.20;;;-1.30;99.90;;;;;;5071179;28;20044;-78
2023/11/22 00:50:48;;;;;;;31.60;16.50;;;-1.40;99.90;;;;;;5071175;28;20477;-79
2023/11/22 00:53:14;;;;;;;30.15;15.32;;;-1.40;99.90;;;;;;5071274;28;20163;-79
2023/11/22 00:55:42;;;;;;;34.85;17.52;;;-1.40;99.90;;;;;;5072366;28;20092;-79
2023/11/22 00:58:07;;;;;;;33.63;17.85;;;-1.50;99.90;;;;;;5072280;28;20082;-79
2023/11/22 01:00:33;;;;;;;33.95;17.92;;;-1.50;99.90;;;;;;5071035;28;20474;-79
2023/11/22 01:02:59;;;;;;;31.90;18.58;;;-1.40;99.90;;;;;;5071045;28;20108;-74
2023/11/22 01:05:24;;;;;;;30.17;16.10;;;-1.40;99.90;;;;;;5071132;28;20074;-78
2023/11/22 01:07:50;;;;;;;29.13;15.63;;;-1.50;99.90;;;;;;5072265;28;20485;-79
2023/11/22 01:10:16;;;;;;;27.25;14.60;;;-1.50;99.90;;;;;;5072394;28;20094;-75
2023/11/22 01:12:41;;;;;;;34.40;17.48;;;-1.50;99.90;;;;;;5070466;28;20429;-79
2023/11/22 01:15:08;;;;;;;32.20;17.13;;;-1.50;99.90;;;;;;5070916;28;20021;-75
2023/11/22 01:17:34;;;;;;;32.03;16.52;;;-1.50;99.90;;;;;;5070963;28;20017;-75
2023/11/22 01:20:00;;;;;;;35.10;16.73;;;-1.60;99.90;;;;;;5070778;28;20028;-74
2023/11/22 01:22:27;;;;;;;33.55;16.50;;;-1.60;99.90;;;;;;5072234;28;20044;-75
2023/11/22 01:24:52;;;;;;;35.92;18.27;;;-1.60;99.90;;;;;;5070665;28;20021;-79
2023/11/22 01:27:18;;;;;;;30.58;14.00;;;-1.70;99.90;;;;;;5072067;28;20017;-79
2023/11/22 01:29:44;;;;;;;42.33;19.77;;;-1.80;99.90;;;;;;5072100;28;20434;-79
2023/11/22 01:32:10;;;;;;;40.58;19.38;;;-1.90;99.90;;;;;;5072705;28;20048;-78
2023/11/22 01:34:36;;;;;;;42.63;18.50;;;-1.90;99.90;;;;;;5075621;28;20028;-79
2023/11/22 01:37:03;;;;;;;62.22;22.95;;;-1.90;99.90;;;;;;5075879;28;20024;-79
2023/11/22 01:39:28;;;;;;;43.83;20.98;;;-1.90;99.90;;;;;;5075381;28;20035;-74
2023/11/22 01:41:54;;;;;;;51.40;21.80;;;-2.00;99.90;;;;;;5074552;28;20386;-78
2023/11/22 01:44:20;;;;;;;41.20;21.10;;;-2.00;99.90;;;;;;5074212;28;20158;-79
2023/11/22 01:46:46;;;;;;;42.80;20.48;;;-2.00;99.90;;;;;;5075854;28;20074;-79
2023/11/22 01:49:12;;;;;;;38.05;17.90;;;-2.20;99.90;;;;;;5075238;28;20024;-78
2023/11/22 01:51:39;;;;;;;44.33;20.02;;;-2.20;99.90;;;;;;5075643;28;20016;-78
2023/11/22 01:54:08;;;;;;;45.80;20.90;;;-2.30;99.90;;;;;;5074221;28;20040;-74
2023/11/22 01:56:37;;;;;;;30.95;15.68;;;-2.30;99.90;;;;;;5073839;28;20040;-74
2023/11/22 01:59:04;;;;;;;41.08;19.75;;;-2.30;99.90;;;;;;5073702;28;20017;-79
2023/11/22 02:01:31;;;;;;;45.53;20.70;;;-2.40;99.90;;;;;;5075300;28;20039;-74
2023/11/22 02:03:57;;;;;;;38.50;19.23;;;-2.40;99.90;;;;;;5074151;28;20032;-74
2023/11/22 02:06:23;;;;;;;40.63;19.95;;;-2.40;99.90;;;;;;5073802;28;20474;-74
2023/11/22 02:08:49;;;;;;;40.75;20.42;;;-2.40;99.90;;;;;;5073951;28;20020;-74
2023/11/22 02:11:22;;;;;;;45.30;18.80;;;-2.40;99.90;;;;;;5075076;28;20099;-78
2023/11/22 02:13:49;;;;;;;33.30;16.00;;;-2.30;99.90;;;;;;5075071;28;20024;-78
2023/11/22 02:16:16;;;;;;;41.25;19.25;;;-2.30;99.90;;;;;;5073511;28;20028;-74
2023/11/22 02:18:44;;;;;;;39.67;19.55;;;-2.30;99.90;;;;;;5073776;28;20107;-74
2023/11/22 02:21:10;;;;;;;38.42;18.63;;;-2.30;99.90;;;;;;5073736;28;20463;-74
2023/11/22 02:23:36;;;;;;;36.90;20.98;;;-2.30;99.90;;;;;;5073857;28;20467;-78
2023/11/22 02:26:02;;;;;;;41.63;18.85;;;-2.40;99.90;;;;;;5073603;28;20020;-74
2023/11/22 02:28:28;;;;;;;36.78;19.80;;;-2.40;99.90;;;;;;5074985;28;20028;-78
2023/11/22 02:30:54;;;;;;;45.03;20.50;;;-2.40;99.90;;;;;;5074616;28;20535;-78
2023/11/22 02:33:20;;;;;;;44.38;19.13;;;-2.40;99.90;;;;;;5073420;28;20052;-78
2023/11/22 02:35:46;;;;;;;37.30;20.25;;;-2.40;99.90;;;;;;5073417;28;20099;-74
2023/11/22 02:38:11;;;;;;;33.60;17.55;;;-2.30;99.90;;;;;;5073361;28;20508;-74
2023/11/22 02:40:37;;;;;;;43.65;20.33;;;-2.40;99.90;;;;;;5073280;28;20381;-74
2023/11/22 02:43:08;;;;;;;35.75;18.55;;;-2.30;99.90;;;;;;5074312;28;20054;-74
2023/11/22 02:45:34;;;;;;;36.42;18.85;;;-2.30;99.90;;;;;;5073073;28;20028;-74
2023/11/22 02:48:01;;;;;;;37.22;18.63;;;-2.30;99.90;;;;;;5074552;28;20469;-78
2023/11/22 02:50:27;;;;;;;34.47;18.80;;;-2.30;99.90;;;;;;5072970;28;20025;-78
2023/11/22 02:52:53;;;;;;;36.30;19.10;;;-2.30;99.90;;;;;;5074517;28;20036;-78
2023/11/22 02:55:19;;;;;;;35.25;16.80;;;-2.30;99.90;;;;;;5074217;28;20470;-74
2023/11/22 02:57:45;;;;;;;36.05;15.75;;;-2.40;99.90;;;;;;5073120;28;20036;-78
2023/11/22 03:00:14;;;;;;;33.17;17.17;;;-2.40;99.90;;;;;;5074291;28;20530;-74
2023/11/22 03:02:43;;;;;;;34.65;18.17;;;-2.40;99.90;;;;;;5074217;28;20021;-78
2023/11/22 03:05:09;;;;;;;37.67;18.98;;;-2.50;99.90;;;;;;5072775;28;20017;-78
2023/11/22 03:07:35;;;;;;;40.20;18.42;;;-2.40;99.90;;;;;;5072989;28;20039;-75
2023/11/22 03:10:02;;;;;;;43.88;17.15;;;-2.40;99.90;;;;;;5074164;28;20359;-78
2023/11/22 03:12:28;;;;;;;43.30;19.98;;;-2.40;99.90;;;;;;5074066;28;20016;-78
2023/11/22 03:14:58;;;;;;;42.92;22.55;;;-2.40;99.90;;;;;;5073603;28;20386;-78
2023/11/22 03:17:24;;;;;;;51.47;21.48;;;-2.40;99.90;;;;;;5072496;28;20024;-78
2023/11/22 03:19:50;;;;;;;39.40;18.80;;;-2.40;99.90;;;;;;5072256;28;20013;-74
2023/11/22 03:22:15;;;;;;;36.30;16.75;;;-2.40;99.90;;;;;;5073769;28;20470;-78
2023/11/22 03:24:42;;;;;;;36.15;17.70;;;-2.40;99.90;;;;;;5073613;28;20039;-78
2023/11/22 03:27:07;;;;;;;25.25;12.90;;;-2.40;99.90;;;;;;5072510;28;20016;-74
2023/11/22 03:29:34;;;;;;;31.20;15.95;;;-2.50;99.90;;;;;;5073597;28;20021;-78
2023/11/22 03:32:00;;;;;;;31.27;16.20;;;-2.50;99.90;;;;;;5072351;28;20048;-74
2023/11/22 03:34:26;;;;;;;30.27;14.27;;;-2.50;99.90;;;;;;5073288;28;20033;-78
2023/11/22 03:36:52;;;;;;;35.58;16.88;;;-2.50;99.90;;;;;;5073784;28;20100;-74
2023/11/22 03:39:17;;;;;;;37.30;17.85;;;-2.50;99.90;;;;;;5073284;28;20021;-73
2023/11/22 03:41:43;;;;;;;30.50;16.10;;;-2.50;99.90;;;;;;5072342;28;20032;-74
2023/11/22 03:44:09;;;;;;;35.03;17.23;;;-2.50;99.90;;;;;;5073475;28;20031;-74
2023/11/22 03:46:38;;;;;;;40.33;17.35;;;-2.60;99.90;;;;;;5073416;28;20096;-78
2023/11/22 03:49:06;;;;;;;40.60;20.63;;;-2.50;99.90;;;;;;5073298;28;20025;-78
2023/11/22 03:51:32;;;;;;;45.63;20.15;;;-2.60;99.90;;;;;;5073272;28;20101;-78
2023/11/22 03:53:58;;;;;;;37.97;19.40;;;-2.50;99.90;;;;;;5070352;28;20032;-78
2023/11/22 03:56:24;;;;;;;42.40;18.77;;;-2.50;99.90;;;;;;5073093;28;20024;-79
2023/11/22 03:58:50;;;;;;;41.35;19.98;;;-2.50;99.90;;;;;;5072477;28;20031;-78
2023/11/22 04:01:19;;;;;;;40.63;19.73;;;-2.60;99.90;;;;;;5073080;28;20100;-74
2023/11/22 04:03:45;;;;;;;39.90;20.67;;;-2.60;99.90;;;;;;5072580;28;20052;-75
2023/11/22 04:06:10;;;;;;;35.20;18.38;;;-2.70;99.90;;;;;;5071484;28;20044;-79
2023/11/22 04:08:37;;;;;;;41.65;19.42;;;-2.70;99.90;;;;;;5071753;28;20109;-74
2023/11/22 04:11:05;;;;;;;45.08;19.50;;;-2.70;99.90;;;;;;5071399;28;20444;-78
2023/11/22 04:13:31;;;;;;;41.85;21.42;;;-2.70;99.90;;;;;;5072420;28;20025;-74
2023/11/22 04:15:56;;;;;;;42.88;20.10;;;-2.80;99.90;;;;;;5072920;28;20035;-78
2023/11/22 04:18:22;;;;;;;39.83;20.40;;;-2.80;99.90;;;;;;5073081;28;20023;-78
2023/11/22 04:20:48;;;;;;;25.63;13.40;;;-2.80;99.90;;;;;;5071498;28;20043;-74
2023/11/22 04:23:14;;;;;;;40.30;20.00;;;-2.90;99.90;;;;;;5071356;28;20446;-74
2023/11/22 04:25:41;;;;;;;36.88;17.85;;;-2.80;99.90;;;;;;5071630;28;20024;-74
2023/11/22 04:28:09;;;;;;;40.95;16.50;;;-2.90;99.90;;;;;;5072235;28;20070;-79
2023/11/22 04:30:35;;;;;;;35.40;16.17;;;-2.90;99.90;;;;;;5072456;28;20020;-75
2023/11/22 04:33:01;;;;;;;34.05;15.05;;;-2.90;99.90;;;;;;5071190;28;20573;-75
2023/11/22 04:35:27;;;;;;;33.60;16.85;;;-3.00;99.90;;;;;;5071274;28;20020;-74
2023/11/22 04:37:55;;;;;;;41.63;19.73;;;-2.90;99.90;;;;;;5071329;28;20145;-79
2023/11/22 04:40:20;;;;;;;37.03;18.80;;;-2.90;99.90;;;;;;5072560;28;20027;-79
2023/11/22 04:42:48;;;;;;;36.63;17.83;;;-2.90;99.90;;;;;;5072521;28;20107;-79
2023/11/22 04:45:13;;;;;;;35.20;17.92;;;-2.90;99.90;;;;;;5071053;28;20379;-74
2023/11/22 04:47:39;;;;;;;33.03;16.42;;;-3.00;99.90;;;;;;5060667;28;20071;-74
2023/11/22 04:50:06;;;;;;;38.38;18.42;;;-3.00;99.90;;;;;;5068763;28;20035;-74
2023/11/22 04:52:32;;;;;;;31.80;16.70;;;-2.90;99.90;;;;;;5070872;28;20078;-78
2023/11/22 04:54:58;;;;;;;29.77;15.02;;;-3.00;99.90;;;;;;5072429;28;20024;-74
2023/11/22 04:57:23;;;;;;;33.85;15.98;;;-3.10;99.90;;;;;;5072558;28;20025;-78
2023/11/22 04:59:49;;;;;;;38.20;17.10;;;-3.00;99.90;;;;;;5072236;28;20020;-78
2023/11/22 05:02:15;;;;;;;32.72;16.70;;;-3.00;99.90;;;;;;5072145;28;20029;-75
2023/11/22 05:04:42;;;;;;;34.92;14.77;;;-3.00;99.90;;;;;;5072122;28;20017;-78
2023/11/22 05:07:09;;;;;;;32.80;16.67;;;-3.00;99.90;;;;;;5074964;28;20012;-74
2023/11/22 05:09:34;;;;;;;33.88;17.92;;;-3.00;99.90;;;;;;5076070;28;20021;-78
2023/11/22 05:12:00;;;;;;;30.23;14.45;;;-3.00;99.90;;;;;;5076245;28;20410;-74
2023/11/22 05:14:26;;;;;;;27.30;13.63;;;-3.00;99.90;;;;;;5075945;28;20375;-74
2023/11/22 05:16:52;;;;;;;29.92;15.23;;;-3.00;99.90;;;;;;5075023;28;20481;-78
2023/11/22 05:19:17;;;;;;;32.50;15.82;;;-3.10;99.90;;;;;;5076011;28;20035;-74
2023/11/22 05:21:43;;;;;;;29.17;16.08;;;-3.10;99.90;;;;;;5075006;28;20138;-75
2023/11/22 05:24:09;;;;;;;31.42;13.98;;;-3.10;99.90;;;;;;5074725;28;20456;-74
2023/11/22 05:26:34;;;;;;;29.58;15.40;;;-3.20;99.90;;;;;;5075982;28;20028;-78
2023/11/22 05:29:00;;;;;;;29.33;14.57;;;-3.10;99.90;;;;;;5074506;28;20461;-74
2023/11/22 05:31:26;;;;;;;30.95;15.40;;;-3.10;99.90;;;;;;5074457;28;20048;-78
2023/11/22 05:33:51;;;;;;;29.42;14.65;;;-3.10;99.90;;;;;;5074598;28;20040;-78
2023/11/22 05:36:17;;;;;;;26.67;14.05;;;-3.10;99.90;;;;;;5074626;28;20025;-78
2023/11/22 05:38:43;;;;;;;33.05;14.60;;;-3.10;99.90;;;;;;5073955;28;20543;-74
2023/11/22 05:41:08;;;;;;;32.35;14.88;;;-3.10;99.90;;;;;;5080660;28;20021;-78
2023/11/22 05:43:36;;;;;;;25.15;13.07;;;-3.10;99.90;;;;;;5074385;28;20558;-73
2023/11/22 05:46:03;;;;;;;30.20;14.02;;;-3.10;99.90;;;;;;5075713;28;20005;-78
2023/11/22 05:48:28;;;;;;;32.38;15.68;;;-3.20;99.90;;;;;;5074292;28;20020;-78
2023/11/22 05:50:54;;;;;;;32.60;16.05;;;-3.20;99.90;;;;;;5075724;28;20393;-77
2023/11/22 05:53:21;;;;;;;30.52;16.20;;;-3.30;99.90;;;;;;5074118;28;20036;-78
2023/11/22 05:55:50;;;;;;;27.77;15.30;;;-3.30;99.90;;;;;;5075636;28;20046;-78
2023/11/22 05:58:16;;;;;;;38.80;17.63;;;-3.30;99.90;;;;;;5074953;28;20029;-75
2023/11/22 06:00:48;;;;;;;27.38;15.20;;;-3.20;99.90;;;;;;5067703;28;20040;-74
2023/11/22 06:03:14;;;;;;;25.97;12.00;;;-3.20;99.90;;;;;;5073751;28;20024;-78
2023/11/22 06:05:40;;;;;;;29.02;15.32;;;-3.20;99.90;;;;;;5073902;28;20108;-74
2023/11/22 06:08:06;;;;;;;29.35;16.10;;;-3.20;99.90;;;;;;5073800;28;20057;-76
2023/11/22 06:10:32;;;;;;;27.77;14.18;;;-3.20;99.90;;;;;;5075417;28;20497;-74
2023/11/22 06:12:58;;;;;;;29.20;15.90;;;-3.20;99.90;;;;;;5073666;28;20390;-79
2023/11/22 06:15:23;;;;;;;29.48;14.38;;;-3.10;99.90;;;;;;5075143;28;20096;-73
2023/11/22 06:17:49;;;;;;;31.55;15.77;;;-3.10;99.90;;;;;;5073218;28;20021;-79
2023/11/22 06:20:15;;;;;;;27.55;14.43;;;-3.10;99.90;;;;;;5073183;28;20025;-74
2023/11/22 06:22:42;;;;;;;32.55;15.32;;;-3.10;99.90;;;;;;5074626;28;20020;-74
2023/11/22 06:25:13;;;;;;;24.65;14.05;;;-3.10;99.90;;;;;;5074282;28;20020;-74
2023/11/22 06:27:40;;;;;;;34.95;15.68;;;-3.20;99.90;;;;;;5074812;28;20017;-78
2023/11/22 06:30:06;;;;;;;35.33;15.70;;;-3.20;99.90;;;;;;5072223;28;20028;-79
2023/11/22 06:32:33;;;;;;;37.33;16.48;;;-3.30;99.90;;;;;;5072517;28;20044;-74
2023/11/22 06:34:59;;;;;;;37.08;21.25;;;-3.20;99.90;;;;;;5073503;28;20029;-74
2023/11/22 06:37:25;;;;;;;30.60;13.63;;;-3.20;99.90;;;;;;5073759;28;20063;-74
2023/11/22 06:39:51;;;;;;;28.20;15.00;;;-3.30;99.90;;;;;;5067644;28;20370;-74
2023/11/22 06:42:19;;;;;;;27.58;14.68;;;-3.30;99.90;;;;;;5072628;28;20051;-78
2023/11/22 06:44:47;;;;;;;29.83;17.42;;;-3.20;99.90;;;;;;5071286;28;20021;-78
2023/11/22 06:47:13;;;;;;;25.02;12.30;;;-3.20;99.90;;;;;;5064813;28;20432;-78
2023/11/22 06:49:39;;;;;;;30.17;15.85;;;-3.20;99.90;;;;;;5074442;28;20091;-78
2023/11/22 06:52:05;;;;;;;17.83;10.07;;;-3.20;99.90;;;;;;5073622;28;20064;-78
2023/11/22 06:54:31;;;;;;;25.85;12.95;;;-3.20;99.90;;;;;;5073962;28;20112;-74
2023/11/22 06:56:57;;;;;;;25.48;12.25;;;-3.20;99.90;;;;;;5074218;28;20467;-76
2023/11/22 06:59:22;;;;;;;23.55;13.48;;;-3.10;99.90;;;;;;5073098;28;20116;-74
2023/11/22 07:01:48;;;;;;;22.33;12.15;;;-3.10;99.90;;;;;;5071821;28;20021;-74
2023/11/22 07:04:14;;;;;;;19.83;11.15;;;-3.10;99.90;;;;;;5073094;28;20126;-74
2023/11/22 07:06:40;;;;;;;27.23;13.18;;;-3.10;99.90;;;;;;5069325;28;20013;-74
2023/11/22 07:09:09;;;;;;;27.30;11.48;;;-3.00;99.90;;;;;;5074083;28;20143;-79
2023/11/22 07:11:35;;;;;;;20.95;12.63;;;-3.00;99.90;;;;;;5072790;28;20046;-74
2023/11/22 07:14:00;;;;;;;18.10;9.50;;;-3.00;99.90;;;;;;5073409;28;20107;-79
2023/11/22 07:16:26;;;;;;;17.02;9.43;;;-3.00;99.90;;;;;;5072371;28;20111;-75
2023/11/22 07:18:52;;;;;;;23.92;12.52;;;-3.10;99.90;;;;;;5072892;28;20533;-74
2023/11/22 07:21:18;;;;;;;24.02;13.02;;;-3.00;99.90;;;;;;5073315;28;20063;-79
2023/11/22 07:23:45;;;;;;;25.90;13.18;;;-3.00;99.90;;;;;;5072920;28;20417;-74
2023/11/22 07:26:11;;;;;;;23.67;11.02;;;-2.90;99.90;;;;;;5072300;28;20032;-74
2023/11/22 07:28:36;;;;;;;20.73;11.95;;;-2.90;99.90;;;;;;5068869;28;20032;-79
2023/11/22 07:31:05;;;;;;;27.65;14.65;;;-2.90;99.90;;;;;;5065911;28;20021;-74
2023/11/22 07:33:32;;;;;;;22.00;13.15;;;-2.80;99.90;;;;;;5069387;28;20033;-74
2023/11/22 07:35:58;;;;;;;30.05;14.57;;;-2.90;99.90;;;;;;5067998;28;20020;-74
2023/11/22 07:38:24;;;;;;;28.75;14.88;;;-2.90;99.90;;;;;;5071204;28;20078;-74
2023/11/22 07:40:51;;;;;;;27.45;13.38;;;-2.80;99.90;;;;;;5072782;28;20026;-74
2023/11/22 07:43:16;;;;;;;25.02;13.25;;;-2.80;99.90;;;;;;5066822;28;20024;-75
2023/11/22 07:45:43;;;;;;;24.67;14.20;;;-2.90;99.90;;;;;;5070844;28;20021;-75
2023/11/22 07:48:11;;;;;;;30.45;13.93;;;-2.80;99.90;;;;;;5071079;28;20024;-75
2023/11/22 07:50:39;;;;;;;33.30;14.63;;;-2.80;99.90;;;;;;5071170;28;20099;-75
2023/11/22 07:53:05;;;;;;;34.50;16.90;;;-2.90;99.90;;;;;;5071419;28;20079;-74
2023/11/22 07:55:31;;;;;;;44.92;20.45;;;-2.80;99.90;;;;;;5071700;28;20413;-75
2023/11/22 07:57:56;;;;;;;44.85;21.17;;;-2.80;99.90;;;;;;5070941;28;20020;-75
2023/11/22 08:00:23;;;;;;;39.40;18.80;;;-2.80;99.90;;;;;;5071150;28;20082;-74
2023/11/22 08:02:49;;;;;;;35.88;16.65;;;-2.80;99.90;;;;;;5070805;28;20071;-74
2023/11/22 08:05:17;;;;;;;36.47;17.02;;;-2.80;99.90;;;;;;5071417;28;20512;-74
2023/11/22 08:07:45;;;;;;;23.02;11.70;;;-2.70;99.90;;;;;;5071747;28;20359;-75
2023/11/22 08:10:29;;;;;;;27.25;14.10;;;-2.70;99.90;;;;;;5072791;28;20018;-75
2023/11/22 08:12:55;;;;;;;27.33;13.15;;;-2.70;99.90;;;;;;5070643;28;20041;-76
2023/11/22 08:15:21;;;;;;;31.27;14.32;;;-2.70;99.90;;;;;;5081755;28;20032;-75
2023/11/22 08:17:47;;;;;;;31.05;14.98;;;-2.70;99.90;;;;;;5071965;28;20016;-75
2023/11/22 08:20:17;;;;;;;29.95;14.20;;;-2.60;99.90;;;;;;5071837;28;20025;-75
2023/11/22 08:22:45;;;;;;;28.52;15.52;;;-2.50;99.90;;;;;;5072220;28;20053;-75
2023/11/22 08:25:12;;;;;;;26.63;12.45;;;-2.50;99.90;;;;;;5069406;28;20027;-75
2023/11/22 08:27:40;;;;;;;29.25;14.18;;;-2.40;99.90;;;;;;5070380;28;20016;-75
2023/11/22 08:30:09;;;;;;;26.52;13.38;;;-2.40;99.90;;;;;;5070722;28;20028;-75
2023/11/22 08:32:35;;;;;;;23.00;11.30;;;-2.40;99.90;;;;;;5067448;28;20056;-75
2023/11/22 08:35:01;;;;;;;28.27;13.38;;;-2.40;99.90;;;;;;5069526;28;20512;-75
2023/11/22 08:37:26;;;;;;;22.45;11.65;;;-2.40;99.90;;;;;;5070566;28;20051;-75
2023/11/22 08:39:53;;;;;;;21.15;10.75;;;-2.40;99.90;;;;;;5070611;28;20040;-75
2023/11/22 08:42:19;;;;;;;23.23;12.13;;;-2.30;99.90;;;;;;5070209;28;20474;-79
2023/11/22 08:44:45;;;;;;;19.02;10.43;;;-2.30;99.90;;;;;;5071798;28;20027;-79
2023/11/22 08:47:11;;;;;;;22.13;10.30;;;-2.30;99.90;;;;;;5071040;28;20390;-79
2023/11/22 08:49:37;;;;;;;18.55;10.48;;;-2.30;99.90;;;;;;5070282;28;20028;-80
2023/11/22 08:52:07;;;;;;;22.42;10.07;;;-2.30;99.90;;;;;;5070825;28;20020;-79
2023/11/22 08:54:32;;;;;;;24.90;11.02;;;-2.20;99.90;;;;;;5068469;28;20028;-79
2023/11/22 08:56:58;;;;;;;17.58;10.20;;;-2.20;99.90;;;;;;5070171;28;20069;-80
2023/11/22 08:59:24;;;;;;;22.83;11.90;;;-2.10;99.90;;;;;;5071761;28;20029;-79
2023/11/22 09:01:49;;;;;;;25.60;11.98;;;-2.10;99.90;;;;;;5071628;28;20024;-75
2023/11/22 09:04:15;;;;;;;22.38;12.27;;;-2.00;99.90;;;;;;5068183;28;20035;-76
2023/11/22 09:06:42;;;;;;;19.33;12.15;;;-2.00;99.90;;;;;;5063734;28;20382;-75
2023/11/22 09:09:08;;;;;;;20.00;10.52;;;-2.00;99.90;;;;;;5069095;28;20090;-79
2023/11/22 09:11:34;;;;;;;20.50;11.35;;;-2.00;99.90;;;;;;5062361;28;20044;-75
2023/11/22 09:14:04;;;;;;;19.15;12.13;;;-2.00;99.90;;;;;;5062614;28;20032;-78
2023/11/22 09:16:38;;;;;;;21.20;11.18;;;-1.90;99.90;;;;;;5064703;28;20381;-79
2023/11/22 09:19:06;;;;;;;20.02;10.57;;;-1.90;99.90;;;;;;5070398;28;20039;-80
2023/11/22 09:21:32;;;;;;;25.08;12.65;;;-1.90;99.90;;;;;;5071666;28;20024;-79
2023/11/22 09:23:59;;;;;;;20.13;11.30;;;-2.00;99.90;;;;;;5072345;28;20020;-75
2023/11/22 09:26:24;;;;;;;22.02;12.95;;;-2.00;99.90;;;;;;5070805;28;20523;-79
2023/11/22 09:28:50;;;;;;;19.15;10.63;;;-1.90;99.90;;;;;;5072257;28;20028;-75
2023/11/22 09:31:20;;;;;;;18.48;10.07;;;-2.10;99.90;;;;;;5070493;28;20111;-75
2023/11/22 09:33:46;;;;;;;16.77;9.70;;;-2.10;99.90;;;;;;5070760;28;20035;-75
2023/11/22 09:36:12;;;;;;;13.38;7.97;;;-2.10;99.90;;;;;;5070728;28;20037;-79
2023/11/22 09:38:38;;;;;;;17.05;8.38;;;-2.00;99.90;;;;;;5072064;28;20020;-76
2023/11/22 09:41:04;;;;;;;16.35;9.73;;;-2.00;99.90;;;;;;5070885;28;20432;-78
2023/11/22 09:43:30;;;;;;;16.30;7.72;;;-2.00;99.90;;;;;;5070738;28;20474;-79
2023/11/22 09:45:56;;;;;;;15.88;9.80;;;-2.00;99.90;;;;;;5070708;28;20025;-79
2023/11/22 09:48:24;;;;;;;13.68;8.10;;;-2.00;99.90;;;;;;5070778;28;20085;-75
2023/11/22 09:51:22;;;;;;;16.10;8.55;;;-2.00;99.90;;;;;;5070453;28;20028;-75
2023/11/22 09:53:56;;;;;;;13.68;8.73;;;-1.80;99.90;;;;;;5067831;28;20021;-79
2023/11/22 09:56:24;;;;;;;14.38;7.45;;;-1.80;99.90;;;;;;5075470;28;20028;-75
2023/11/22 09:58:57;;;;;;;15.50;8.77;;;-1.80;99.90;;;;;;5074256;28;20020;-75
2023/11/22 10:01:23;;;;;;;;;;;-1.70;99.90;;;;;;5074367;28;20458;-79
2023/11/22 10:03:49;;;;;;;16.17;7.82;;;-1.60;99.90;;;;;;5075813;28;19905;-79
2023/11/22 10:06:16;;;;;;;10.55;6.45;;;-1.80;99.90;;;;;;5074034;28;20028;-79
2023/11/22 10:08:41;;;;;;;13.45;8.27;;;-1.80;99.90;;;;;;5074207;28;20035;-79
2023/11/22 10:11:07;;;;;;;9.73;5.55;;;-1.80;99.90;;;;;;5073930;28;20470;-75
2023/11/22 10:13:34;;;;;;;10.98;6.78;;;-1.90;99.90;;;;;;5074011;28;20501;-79
2023/11/22 10:16:15;;;;;;;11.98;7.32;;;-1.80;99.90;;;;;;5073687;28;20017;-75
2023/11/22 10:18:47;;;;;;;12.18;6.88;;;-1.80;99.90;;;;;;5075345;28;20031;-75
2023/11/22 10:21:24;;;;;;;13.95;7.78;;;-1.80;99.90;;;;;;5075081;28;20474;-75
2023/11/22 10:23:56;;;;;;;16.75;8.20;;;-1.80;99.90;;;;;;5075083;28;20046;-79
2023/11/22 10:26:23;;;;;;;19.10;8.48;;;-1.80;99.90;;;;;;5073858;28;20032;-75
2023/11/22 10:28:52;;;;;;;13.02;7.28;;;-1.80;99.90;;;;;;5073433;28;20024;-75
2023/11/22 10:31:19;;;;;;;15.30;8.45;;;-1.80;99.90;;;;;;5073512;28;20056;-79
2023/11/22 10:33:44;;;;;;;15.45;7.60;;;-1.80;99.90;;;;;;5074671;28;20032;-79
2023/11/22 10:36:12;;;;;;;13.43;7.68;;;-1.80;99.90;;;;;;5073605;28;20112;-79
2023/11/22 10:38:38;;;;;;;12.75;7.53;;;-1.80;99.90;;;;;;5074674;28;20017;-75
2023/11/22 10:41:08;;;;;;;14.05;8.20;;;-1.70;99.90;;;;;;5073536;28;20044;-75
2023/11/22 10:43:37;;;;;;;14.50;8.73;;;-1.70;99.90;;;;;;5073384;28;20018;-80
2023/11/22 10:46:06;;;;;;;13.63;7.38;;;-1.80;99.90;;;;;;5075039;28;20017;-80
2023/11/22 10:48:33;;;;;;;14.00;7.72;;;-1.80;99.90;;;;;;5074569;28;20019;-76
2023/11/22 10:51:04;;;;;;;16.65;10.65;;;-1.80;99.90;;;;;;5073471;28;20104;-79
2023/11/22 10:53:49;;;;;;;19.15;11.18;;;-1.80;99.90;;;;;;5074392;28;20036;-79
2023/11/22 10:56:17;;;;;;;20.27;9.85;;;-1.70;99.90;;;;;;5079961;28;20383;-75
2023/11/22 10:58:51;;;;;;;20.33;10.00;;;-1.70;99.90;;;;;;5074551;28;20095;-76
2023/11/22 11:01:21;;;;;;;11.38;7.05;;;-1.70;99.90;;;;;;5072695;28;20528;-79
2023/11/22 11:04:05;;;;;;;18.23;7.50;;;-1.70;99.90;;;;;;5072956;28;20024;-75
2023/11/22 11:06:34;;;;;;;15.23;7.05;;;-1.80;99.90;;;;;;5074021;28;20025;-79
2023/11/22 11:09:08;;;;;;;9.52;6.78;;;-1.80;99.90;;;;;;5074376;28;20017;-75
2023/11/22 11:11:36;;;;;;;10.25;7.20;;;-1.80;99.90;;;;;;5061527;28;20029;-79
2023/11/22 11:14:03;;;;;;;23.88;9.93;;;-1.80;99.90;;;;;;5072651;28;20085;-75
2023/11/22 11:16:32;;;;;;;13.63;8.02;;;-1.80;99.90;;;;;;5072883;28;20032;-75
2023/11/22 11:18:58;;;;;;;13.95;8.15;;;-1.80;99.90;;;;;;5072352;28;20470;-75
2023/11/22 11:21:25;;;;;;;21.30;11.15;;;-1.80;99.90;;;;;;5072740;28;20021;-79
2023/11/22 11:23:54;;;;;;;22.33;11.27;;;-1.70;99.90;;;;;;5073857;28;20067;-79
2023/11/22 11:26:21;;;;;;;25.15;12.77;;;-1.80;99.90;;;;;;5073806;28;20087;-75
2023/11/22 11:28:49;;;;;;;23.23;14.55;;;-1.80;99.90;;;;;;5073803;28;20029;-79
2023/11/22 11:31:15;;;;;;;24.60;12.25;;;-1.80;99.90;;;;;;5073450;28;20028;-75
2023/11/22 11:33:56;;;;;;;19.92;12.07;;;-1.80;99.90;;;;;;5073663;28;20029;-79
2023/11/22 11:36:28;;;;;;;17.63;9.13;;;-1.90;99.90;;;;;;5072544;28;20024;-75
2023/11/22 11:38:56;;;;;;;19.30;11.75;;;-2.00;99.90;;;;;;5072334;28;20017;-79
2023/11/22 11:41:48;;;;;;;17.27;9.45;;;-2.00;99.90;;;;;;5076888;28;20036;-75
2023/11/22 11:44:14;;;;;;;22.92;15.05;;;-2.00;99.90;;;;;;5071220;28;20036;-79
2023/11/22 11:46:39;;;;;;;28.88;14.88;;;-1.90;99.90;;;;;;5072136;28;20027;-75
2023/11/22 11:49:12;;;;;;;23.58;14.20;;;-1.90;99.90;;;;;;5072297;28;20024;-75
2023/11/22 11:51:38;;;;;;;;;;;-1.90;99.90;;;;;;5072656;28;20032;-75
2023/11/22 11:54:05;;;;;;;28.67;16.33;;;-1.90;99.90;;;;;;5073481;28;20281;-75
2023/11/22 11:56:32;;;;;;;32.83;17.23;;;-2.00;99.90;;;;;;5071750;28;20478;-75
2023/11/22 11:59:00;;;;;;;26.17;13.88;;;-2.10;99.90;;;;;;5071960;28;20481;-75
2023/11/22 12:01:32;;;;;;;21.27;10.43;;;-2.00;99.90;;;;;;5078274;28;20016;-79
2023/11/22 12:04:00;;;;;;;23.65;12.70;;;-2.00;99.90;;;;;;5073300;28;20108;-79
2023/11/22 12:06:26;;;;;;;26.13;11.25;;;-2.00;99.90;;;;;;5071442;28;20028;-75
2023/11/22 12:08:52;;;;;;;29.92;15.73;;;-2.10;99.90;;;;;;5071895;28;20111;-80
2023/11/22 12:11:19;;;;;;;23.85;12.82;;;-2.10;99.90;;;;;;5072651;28;20024;-75
2023/11/22 12:13:50;;;;;;;22.08;11.15;;;-2.10;99.90;;;;;;5071717;28;20025;-79
2023/11/22 12:16:17;;;;;;;20.65;12.55;;;-2.10;99.90;;;;;;5072193;28;20051;-79
2023/11/22 12:18:44;;;;;;;29.40;15.45;;;-2.10;99.90;;;;;;5073093;28;20021;-79
2023/11/22 12:21:13;;;;;;;27.35;13.75;;;-2.10;99.90;;;;;;5071512;28;20024;-75
2023/11/22 12:23:39;;;;;;;29.52;17.27;;;-2.10;99.90;;;;;;5071824;28;20028;-75
2023/11/22 12:26:11;;;;;;;24.98;13.57;;;-2.00;99.90;;;;;;5072668;28;20017;-75
2023/11/22 12:28:39;;;;;;;30.83;15.37;;;-2.00;99.90;;;;;;5071242;28;20378;-75